createdAt,value
2018-01-19T00:00:24.102Z,1.00
2018-01-19T00:01:26.614Z,1.00
2018-01-19T00:02:29.864Z,1.10
2018-01-19T00:03:32.347Z,1.00
2018-01-19T00:04:34.853Z,1.10
2018-01-19T00:05:37.339Z,1.10
2018-01-19T00:06:39.837Z,1.20
2018-01-19T00:07:42.320Z,1.20
2018-01-19T00:08:45.587Z,1.20
2018-01-19T00:09:48.064Z,1.20
2018-01-19T00:10:51.154Z,1.30
2018-01-19T00:11:53.657Z,1.30
2018-01-19T00:12:56.938Z,1.40
2018-01-19T00:14:00.176Z,1.40
2018-01-19T00:15:02.700Z,1.40
2018-01-19T00:16:05.307Z,1.40
2018-01-19T00:17:08.728Z,1.40
2018-01-19T00:18:11.845Z,1.50
2018-01-19T00:19:15.173Z,1.50
2018-01-19T00:20:17.659Z,1.50
2018-01-19T00:21:20.146Z,1.50
2018-01-19T00:22:22.641Z,1.50
2018-01-19T00:23:25.112Z,1.50
2018-01-19T00:24:28.351Z,1.50
2018-01-19T00:25:30.839Z,1.50
2018-01-19T00:26:33.338Z,1.50
2018-01-19T00:27:36.646Z,1.50
2018-01-19T00:28:39.909Z,1.50
2018-01-19T00:29:42.396Z,1.50
2018-01-19T00:30:45.656Z,1.50
2018-01-19T00:31:49.009Z,1.50
2018-01-19T00:32:51.511Z,1.50
2018-01-19T00:33:53.994Z,1.50
2018-01-19T00:34:56.471Z,1.50
2018-01-19T00:35:58.966Z,1.50
2018-01-19T00:37:02.220Z,1.50
2018-01-19T00:38:04.722Z,1.50
2018-01-19T00:39:08.593Z,1.50
2018-01-19T00:40:11.147Z,1.50
2018-01-19T00:41:13.619Z,1.50
2018-01-19T00:42:16.217Z,1.50
2018-01-19T00:43:18.739Z,1.50
2018-01-19T00:44:21.216Z,1.50
2018-01-19T00:45:23.726Z,1.50
2018-01-19T00:46:26.191Z,1.50
2018-01-19T00:47:28.679Z,1.50
2018-01-19T00:48:31.165Z,1.50
2018-01-19T00:49:34.439Z,1.50
2018-01-19T00:50:37.690Z,1.50
2018-01-19T00:51:40.203Z,1.50
2018-01-19T00:52:44.041Z,1.60
2018-01-19T00:53:46.587Z,1.50
2018-01-19T00:54:49.096Z,1.60
2018-01-19T00:55:51.577Z,1.60
2018-01-19T00:56:54.061Z,1.60
2018-01-19T00:57:56.565Z,1.50
2018-01-19T00:58:59.803Z,1.50
2018-01-19T01:00:02.321Z,1.50
2018-01-19T01:01:05.566Z,1.50
2018-01-19T01:02:08.053Z,1.50
2018-01-19T01:03:10.557Z,1.50
2018-01-19T01:04:13.057Z,1.50
2018-01-19T01:05:15.613Z,1.50
2018-01-19T01:06:18.105Z,1.40
2018-01-19T01:07:21.417Z,1.40
2018-01-19T01:08:23.898Z,1.40
2018-01-19T01:09:26.409Z,1.30
2018-01-19T01:10:28.900Z,1.30
2018-01-19T01:11:31.386Z,1.30
2018-01-19T01:12:33.869Z,1.30
2018-01-19T01:13:36.353Z,1.20
2018-01-19T01:14:38.857Z,1.20
2018-01-19T01:15:42.108Z,1.20
2018-01-19T01:16:44.654Z,1.20
2018-01-19T01:17:47.902Z,1.20
2018-01-19T01:18:50.391Z,1.20
2018-01-19T01:19:52.862Z,1.20
2018-01-19T01:20:55.362Z,1.20
2018-01-19T01:21:57.853Z,1.20
2018-01-19T01:23:00.355Z,1.20
2018-01-19T01:24:02.859Z,1.20
2018-01-19T01:25:05.331Z,1.20
2018-01-19T01:26:07.804Z,1.30
2018-01-19T01:27:10.317Z,1.30
2018-01-19T01:28:13.568Z,1.30
2018-01-19T01:29:16.115Z,1.30
2018-01-19T01:30:18.597Z,1.30
2018-01-19T01:31:21.088Z,1.30
2018-01-19T01:32:23.608Z,1.40
2018-01-19T01:33:26.086Z,1.40
2018-01-19T01:34:28.577Z,1.40
2018-01-19T01:35:31.044Z,1.50
2018-01-19T01:36:33.521Z,1.50
2018-01-19T01:37:36.010Z,1.50
2018-01-19T01:38:38.502Z,1.60
2018-01-19T01:39:41.891Z,1.60
2018-01-19T01:40:44.367Z,1.70
2018-01-19T01:41:47.636Z,1.70
2018-01-19T01:42:50.145Z,1.70
2018-01-19T01:43:52.644Z,1.80
2018-01-19T01:44:55.111Z,1.80
2018-01-19T01:45:57.706Z,1.80
2018-01-19T01:47:00.194Z,1.90
2018-01-19T01:48:02.692Z,1.90
2018-01-19T01:49:11.856Z,1.90
2018-01-19T01:50:14.339Z,1.90
2018-01-19T01:51:16.899Z,2.00
2018-01-19T01:52:19.376Z,2.00
2018-01-19T01:53:22.319Z,2.00
2018-01-19T01:54:24.789Z,2.00
2018-01-19T01:55:27.265Z,2.10
2018-01-19T01:56:29.755Z,2.10
2018-01-19T01:57:32.220Z,2.10
2018-01-19T01:58:34.736Z,2.10
2018-01-19T01:59:37.208Z,2.10
2018-01-19T02:00:39.771Z,2.20
2018-01-19T02:01:42.254Z,2.20
2018-01-19T02:02:44.735Z,2.20
2018-01-19T02:03:47.967Z,2.30
2018-01-19T02:04:50.479Z,2.20
2018-01-19T02:05:53.880Z,2.30
2018-01-19T02:06:57.135Z,2.30
2018-01-19T02:08:01.155Z,2.30
2018-01-19T02:09:04.347Z,2.30
2018-01-19T02:10:07.494Z,2.40
2018-01-19T02:11:10.081Z,2.40
2018-01-19T02:12:12.554Z,2.40
2018-01-19T02:13:15.037Z,2.40
2018-01-19T02:14:17.523Z,2.50
2018-01-19T02:15:20.944Z,2.40
2018-01-19T02:16:23.420Z,2.50
2018-01-19T02:17:25.896Z,2.50
2018-01-19T02:18:28.448Z,2.50
2018-01-19T02:19:31.708Z,2.50
2018-01-19T02:20:34.201Z,2.50
2018-01-19T02:21:38.024Z,2.50
2018-01-19T02:22:42.238Z,2.50
2018-01-19T02:23:44.739Z,2.50
2018-01-19T02:24:47.213Z,2.50
2018-01-19T02:25:50.583Z,2.50
2018-01-19T02:26:54.340Z,2.50
2018-01-19T02:27:57.588Z,2.50
2018-01-19T02:29:00.888Z,2.40
2018-01-19T02:30:03.500Z,2.50
2018-01-19T02:31:07.778Z,2.40
2018-01-19T02:32:10.319Z,2.40
2018-01-19T02:33:12.803Z,2.40
2018-01-19T02:34:15.292Z,2.40
2018-01-19T02:35:18.691Z,2.40
2018-01-19T02:36:21.199Z,2.40
2018-01-19T02:37:23.675Z,2.40
2018-01-19T02:38:26.991Z,2.40
2018-01-19T02:39:29.469Z,2.40
2018-01-19T02:40:31.943Z,2.40
2018-01-19T02:51:19.450Z,2.40
2018-01-19T02:52:21.948Z,2.60
2018-01-19T02:53:24.444Z,2.60
2018-01-19T02:54:27.171Z,2.60
2018-01-19T02:55:29.643Z,2.60
2018-01-19T02:56:32.147Z,2.70
2018-01-19T02:57:34.644Z,2.70
2018-01-19T02:58:38.596Z,2.70
2018-01-19T02:59:41.076Z,2.70
2018-01-19T03:00:43.559Z,2.70
2018-01-19T03:01:46.077Z,2.70
2018-01-19T03:02:48.556Z,2.70
2018-01-19T03:03:51.053Z,2.80
2018-01-19T03:04:53.543Z,2.80
2018-01-19T03:05:56.021Z,2.80
2018-01-19T03:06:58.495Z,2.80
2018-01-19T03:08:00.985Z,2.80
2018-01-19T03:09:04.307Z,2.90
2018-01-19T03:10:06.780Z,2.80
2018-01-19T03:11:09.268Z,2.90
2018-01-19T03:12:12.573Z,2.90
2018-01-19T03:13:15.072Z,2.90
2018-01-19T03:14:18.340Z,2.90
2018-01-19T03:15:21.689Z,2.90
2018-01-19T03:16:24.160Z,2.90
2018-01-19T03:17:26.625Z,2.90
2018-01-19T03:18:29.873Z,3.00
2018-01-19T03:19:33.158Z,2.90
2018-01-19T03:20:35.625Z,2.90
2018-01-19T03:21:38.878Z,2.90
2018-01-19T03:22:41.361Z,2.90
2018-01-19T03:23:43.851Z,2.90
2018-01-19T03:24:46.358Z,2.90
2018-01-19T03:25:48.837Z,2.90
2018-01-19T03:26:51.321Z,2.90
2018-01-19T03:27:53.797Z,2.90
2018-01-19T03:28:56.275Z,2.80
2018-01-19T03:29:58.764Z,2.90
2018-01-19T03:31:01.265Z,2.90
2018-01-19T03:32:04.512Z,3.00
2018-01-19T03:33:06.983Z,3.00
2018-01-19T03:34:09.470Z,2.90
2018-01-19T03:35:11.984Z,2.90
2018-01-19T03:36:14.458Z,3.00
2018-01-19T03:37:16.925Z,3.00
2018-01-19T03:38:19.402Z,3.00
2018-01-19T03:39:22.504Z,3.00
2018-01-19T03:40:24.991Z,3.00
2018-01-19T03:41:27.463Z,3.00
2018-01-19T03:42:29.939Z,3.00
2018-01-19T03:43:33.352Z,2.90
2018-01-19T03:44:36.594Z,2.90
2018-01-19T03:45:39.117Z,2.90
2018-01-19T03:46:42.422Z,2.90
2018-01-19T03:47:44.876Z,2.90
2018-01-19T03:48:48.115Z,2.90
2018-01-19T03:49:50.586Z,2.90
2018-01-19T03:50:53.076Z,2.90
2018-01-19T03:51:56.353Z,2.90
2018-01-19T03:52:58.823Z,2.90
2018-01-19T03:54:02.136Z,2.90
2018-01-19T03:55:04.611Z,2.90
2018-01-19T03:56:07.867Z,2.90
2018-01-19T03:57:11.020Z,2.90
2018-01-19T03:58:13.495Z,2.80
2018-01-19T03:59:16.000Z,2.80
2018-01-19T04:00:18.661Z,2.80
2018-01-19T04:01:21.532Z,2.70
2018-01-19T04:02:24.013Z,2.80
2018-01-19T04:03:26.489Z,2.70
2018-01-19T04:04:28.955Z,2.70
2018-01-19T04:05:31.427Z,2.70
2018-01-19T04:06:33.946Z,2.60
2018-01-19T04:07:37.176Z,2.60
2018-01-19T04:08:39.649Z,2.60
2018-01-19T04:09:42.141Z,2.60
2018-01-19T04:10:44.661Z,2.60
2018-01-19T04:11:47.152Z,2.60
2018-01-19T04:12:49.644Z,2.60
2018-01-19T04:13:52.179Z,2.50
2018-01-19T04:14:54.651Z,2.50
2018-01-19T04:15:57.114Z,2.50
2018-01-19T04:16:59.598Z,2.50
2018-01-19T04:18:02.080Z,2.50
2018-01-19T04:19:04.558Z,2.50
2018-01-19T04:20:07.034Z,2.50
2018-01-19T04:21:09.518Z,2.50
2018-01-19T04:22:11.994Z,2.40
2018-01-19T04:23:14.500Z,2.50
2018-01-19T04:24:16.972Z,2.40
2018-01-19T04:25:19.483Z,2.40
2018-01-19T04:26:21.942Z,2.40
2018-01-19T04:27:24.429Z,2.40
2018-01-19T04:28:26.903Z,2.30
2018-01-19T04:29:29.499Z,2.30
2018-01-19T04:30:32.739Z,2.30
2018-01-19T04:31:35.225Z,2.30
2018-01-19T04:32:37.700Z,2.30
2018-01-19T04:33:40.190Z,2.30
2018-01-19T04:34:42.657Z,2.20
2018-01-19T04:35:45.131Z,2.30
2018-01-19T04:36:47.603Z,2.30
2018-01-19T04:37:50.887Z,2.20
2018-01-19T04:38:53.348Z,2.20
2018-01-19T04:39:55.836Z,2.20
2018-01-19T04:40:59.134Z,2.20
2018-01-19T04:42:02.384Z,2.20
2018-01-19T04:43:04.886Z,2.20
2018-01-19T04:44:08.128Z,2.20
2018-01-19T04:45:10.833Z,2.20
2018-01-19T04:46:13.314Z,2.20
2018-01-19T04:47:15.784Z,2.20
2018-01-19T04:48:19.033Z,2.30
2018-01-19T04:49:21.517Z,2.20
2018-01-19T04:50:24.000Z,2.20
2018-01-19T04:51:26.480Z,2.20
2018-01-19T04:52:28.953Z,2.20
2018-01-19T04:53:32.188Z,2.20
2018-01-19T04:54:34.671Z,2.20
2018-01-19T04:55:37.152Z,2.20
2018-01-19T04:56:39.616Z,2.20
2018-01-19T04:57:42.588Z,2.20
2018-01-19T04:58:45.061Z,2.20
2018-01-19T04:59:48.757Z,2.20
2018-01-19T05:00:51.270Z,2.20
2018-01-19T05:01:53.755Z,2.20
2018-01-19T05:02:57.817Z,2.20
2018-01-19T05:04:00.448Z,2.20
2018-01-19T05:05:03.292Z,2.20
2018-01-19T05:06:05.796Z,2.20
2018-01-19T05:07:08.272Z,2.20
2018-01-19T05:08:10.804Z,2.20
2018-01-19T05:09:13.280Z,2.20
2018-01-19T05:10:15.763Z,2.20
2018-01-19T05:11:19.007Z,2.20
2018-01-19T05:12:21.519Z,2.20
2018-01-19T05:13:24.772Z,2.20
2018-01-19T05:14:27.266Z,2.20
2018-01-19T05:15:30.623Z,2.20
2018-01-19T05:16:33.122Z,2.20
2018-01-19T05:17:35.649Z,2.20
2018-01-19T05:18:38.140Z,2.20
2018-01-19T05:19:40.628Z,2.20
2018-01-19T05:20:43.105Z,2.20
2018-01-19T05:21:45.597Z,2.20
2018-01-19T05:22:48.844Z,2.20
2018-01-19T05:23:51.392Z,2.20
2018-01-19T05:24:53.865Z,2.30
2018-01-19T05:25:56.443Z,2.30
2018-01-19T05:26:58.932Z,2.30
2018-01-19T05:28:01.472Z,2.30
2018-01-19T05:29:04.288Z,2.30
2018-01-19T05:30:06.778Z,2.30
2018-01-19T05:31:09.248Z,2.30
2018-01-19T05:32:11.814Z,2.30
2018-01-19T05:33:14.295Z,2.30
2018-01-19T05:34:17.544Z,2.40
2018-01-19T05:35:20.020Z,2.40
2018-01-19T05:36:23.227Z,2.40
2018-01-19T05:37:25.757Z,2.40
2018-01-19T05:38:28.256Z,2.40
2018-01-19T05:39:31.070Z,2.40
2018-01-19T05:40:33.554Z,2.40
2018-01-19T05:41:36.725Z,2.40
2018-01-19T05:42:40.461Z,2.40
2018-01-19T05:43:42.956Z,2.40
2018-01-19T05:44:45.440Z,2.40
2018-01-19T05:45:47.946Z,2.40
2018-01-19T05:46:51.167Z,2.30
2018-01-19T05:47:53.720Z,2.30
2018-01-19T05:48:56.238Z,2.30
2018-01-19T05:49:58.719Z,2.30
2018-01-19T05:51:01.472Z,2.30
2018-01-19T05:52:03.973Z,2.30
2018-01-19T05:53:06.830Z,2.30
2018-01-19T05:54:09.344Z,2.30
2018-01-19T05:55:12.965Z,2.40
2018-01-19T05:56:15.431Z,2.40
2018-01-19T05:57:17.936Z,2.40
2018-01-19T05:58:20.455Z,2.40
2018-01-19T05:59:23.033Z,2.40
2018-01-19T06:00:25.504Z,2.40
2018-01-19T06:01:27.989Z,2.40
2018-01-19T06:02:30.487Z,2.40
2018-01-19T06:03:32.992Z,2.40
2018-01-19T06:04:36.250Z,2.40
2018-01-19T06:05:38.732Z,2.40
2018-01-19T06:06:41.877Z,2.40
2018-01-19T06:07:44.349Z,2.40
2018-01-19T06:08:47.769Z,2.30
2018-01-19T06:09:50.325Z,2.30
2018-01-19T06:10:52.803Z,2.30
2018-01-19T06:11:55.316Z,2.30
2018-01-19T06:12:58.560Z,2.40
2018-01-19T06:14:01.050Z,2.40
2018-01-19T06:15:03.581Z,2.40
2018-01-19T06:16:06.057Z,2.40
2018-01-19T06:17:08.539Z,2.40
2018-01-19T06:18:11.112Z,2.40
2018-01-19T06:19:13.625Z,2.40
2018-01-19T06:20:16.293Z,2.40
2018-01-19T06:21:19.552Z,2.40
2018-01-19T06:22:22.029Z,2.40
2018-01-19T06:23:25.298Z,2.50
2018-01-19T06:24:27.795Z,2.50
2018-01-19T06:25:30.304Z,2.50
2018-01-19T06:26:32.795Z,2.50
2018-01-19T06:27:35.307Z,2.50
2018-01-19T06:28:38.681Z,2.50
2018-01-19T06:29:41.187Z,2.50
2018-01-19T06:30:43.803Z,2.50
2018-01-19T06:31:47.065Z,2.50
2018-01-19T06:32:49.549Z,2.50
2018-01-19T06:33:52.403Z,2.50
2018-01-19T06:34:54.920Z,2.60
2018-01-19T06:35:57.415Z,2.60
2018-01-19T06:36:59.892Z,2.50
2018-01-19T06:38:02.372Z,2.50
2018-01-19T06:39:04.877Z,2.50
2018-01-19T06:40:07.377Z,2.60
2018-01-19T06:41:09.984Z,2.60
2018-01-19T06:42:12.532Z,2.50
2018-01-19T06:43:15.018Z,2.60
2018-01-19T06:44:17.738Z,2.60
2018-01-19T06:45:20.269Z,2.50
2018-01-19T06:46:22.781Z,2.60
2018-01-19T06:47:25.251Z,2.60
2018-01-19T06:48:27.754Z,2.60
2018-01-19T06:49:30.479Z,2.60
2018-01-19T06:50:32.972Z,2.60
2018-01-19T06:51:35.509Z,2.60
2018-01-19T06:52:37.953Z,2.60
2018-01-19T06:53:40.423Z,2.60
2018-01-19T06:54:43.651Z,2.60
2018-01-19T06:55:46.130Z,2.60
2018-01-19T06:56:49.379Z,2.60
2018-01-19T06:57:51.864Z,2.60
2018-01-19T06:58:55.107Z,2.70
2018-01-19T06:59:57.601Z,2.70
2018-01-19T07:01:00.121Z,2.70
2018-01-19T07:02:02.606Z,2.60
2018-01-19T07:03:05.085Z,2.60
2018-01-19T07:04:07.577Z,2.70
2018-01-19T07:05:10.552Z,2.70
2018-01-19T07:06:14.201Z,2.60
2018-01-19T07:07:17.444Z,2.70
2018-01-19T07:08:19.939Z,2.70
2018-01-19T07:09:23.181Z,2.70
2018-01-19T07:10:25.684Z,2.70
2018-01-19T07:11:28.183Z,2.70
2018-01-19T07:12:31.425Z,2.70
2018-01-19T07:13:33.936Z,2.70
2018-01-19T07:14:37.172Z,2.70
2018-01-19T07:15:39.649Z,2.70
2018-01-19T07:16:43.006Z,2.80
2018-01-19T07:17:45.535Z,2.80
2018-01-19T07:18:48.002Z,2.80
2018-01-19T07:19:50.488Z,2.80
2018-01-19T07:20:52.985Z,2.80
2018-01-19T07:21:55.471Z,2.80
2018-01-19T07:22:58.018Z,2.70
2018-01-19T07:24:01.271Z,2.70
2018-01-19T07:25:03.886Z,2.70
2018-01-19T07:26:06.987Z,2.80
2018-01-19T07:27:09.489Z,2.70
2018-01-19T07:28:12.258Z,2.80
2018-01-19T07:29:14.761Z,2.80
2018-01-19T07:30:17.266Z,2.80
2018-01-19T07:31:19.745Z,2.80
2018-01-19T07:32:22.242Z,2.90
2018-01-19T07:33:24.755Z,2.90
2018-01-19T07:34:28.036Z,2.90
2018-01-19T07:35:31.402Z,2.90
2018-01-19T07:36:33.872Z,2.90
2018-01-19T07:37:36.368Z,2.90
2018-01-19T07:38:38.871Z,2.90
2018-01-19T07:39:41.380Z,2.90
2018-01-19T07:40:43.875Z,3.00
2018-01-19T07:41:46.367Z,3.00
2018-01-19T07:42:50.052Z,3.00
2018-01-19T07:43:53.456Z,3.00
2018-01-19T07:44:55.980Z,3.00
2018-01-19T07:45:58.537Z,3.00
2018-01-19T07:47:01.021Z,3.00
2018-01-19T07:48:03.501Z,3.00
2018-01-19T07:49:06.005Z,3.00
2018-01-19T07:50:09.362Z,3.00
2018-01-19T07:51:12.057Z,3.00
2018-01-19T07:52:15.302Z,3.00
2018-01-19T07:53:17.800Z,3.00
2018-01-19T07:54:20.350Z,3.10
2018-01-19T07:55:22.863Z,3.10
2018-01-19T07:56:25.320Z,3.10
2018-01-19T07:57:27.803Z,3.10
2018-01-19T07:58:31.053Z,3.00
2018-01-19T07:59:33.563Z,3.00
2018-01-19T08:00:36.856Z,2.80
2018-01-19T08:01:40.214Z,2.80
2018-01-19T08:02:42.684Z,2.80
2018-01-19T08:03:45.526Z,2.70
2018-01-19T08:04:48.033Z,2.70
2018-01-19T08:05:51.395Z,2.70
2018-01-19T08:06:53.897Z,2.70
2018-01-19T08:07:56.432Z,2.70
2018-01-19T08:08:59.160Z,2.60
2018-01-19T08:10:01.650Z,2.60
2018-01-19T08:11:04.972Z,2.60
2018-01-19T08:12:07.449Z,2.60
2018-01-19T08:13:10.098Z,2.60
2018-01-19T08:14:13.112Z,2.60
2018-01-19T08:15:15.590Z,2.70
2018-01-19T08:16:18.085Z,2.60
2018-01-19T08:17:20.552Z,2.60
2018-01-19T08:18:23.045Z,2.60
2018-01-19T08:19:26.314Z,2.70
2018-01-19T08:20:28.809Z,2.70
2018-01-19T08:21:32.826Z,2.70
2018-01-19T08:22:36.137Z,2.70
2018-01-19T08:23:38.969Z,2.70
2018-01-19T08:24:41.468Z,2.70
2018-01-19T08:25:43.956Z,2.70
2018-01-19T08:26:46.463Z,2.80
2018-01-19T08:27:48.945Z,2.80
2018-01-19T08:28:51.422Z,2.80
2018-01-19T08:29:54.697Z,2.80
2018-01-19T08:30:57.188Z,2.80
2018-01-19T08:32:00.478Z,2.90
2018-01-19T08:33:03.733Z,2.90
2018-01-19T08:34:06.252Z,2.90
2018-01-19T08:35:08.743Z,2.90
2018-01-19T08:36:12.074Z,3.00
2018-01-19T08:37:15.152Z,3.00
2018-01-19T08:38:17.631Z,3.10
2018-01-19T08:39:20.127Z,3.10
2018-01-19T08:40:23.382Z,3.10
2018-01-19T08:41:25.856Z,3.10
2018-01-19T08:42:29.149Z,3.10
2018-01-19T08:43:32.289Z,3.20
2018-01-19T08:44:34.774Z,3.10
2018-01-19T08:45:37.244Z,3.10
2018-01-19T08:46:39.946Z,3.20
2018-01-19T08:47:42.436Z,3.20
2018-01-19T08:48:46.333Z,3.20
2018-01-19T08:49:48.830Z,3.20
2018-01-19T08:50:51.329Z,3.20
2018-01-19T08:51:53.814Z,3.30
2018-01-19T08:52:56.394Z,3.30
2018-01-19T08:53:58.920Z,3.40
2018-01-19T08:55:01.456Z,3.40
2018-01-19T08:56:03.927Z,3.50
2018-01-19T08:57:07.409Z,3.50
2018-01-19T08:58:10.082Z,3.50
2018-01-19T08:59:12.715Z,3.60
2018-01-19T09:00:15.496Z,3.60
2018-01-19T09:01:17.973Z,3.60
2018-01-19T09:02:21.258Z,3.60
2018-01-19T09:03:23.722Z,3.60
2018-01-19T09:04:26.204Z,3.50
2018-01-19T09:05:28.686Z,3.60
2018-01-19T09:06:31.226Z,3.60
2018-01-19T09:07:33.720Z,3.60
2018-01-19T09:08:36.214Z,3.70
2018-01-19T09:09:38.701Z,3.70
2018-01-19T09:10:41.188Z,3.80
2018-01-19T09:11:43.689Z,3.80
2018-01-19T09:12:46.244Z,3.80
2018-01-19T09:13:48.685Z,3.80
2018-01-19T09:14:51.941Z,3.90
2018-01-19T09:15:54.436Z,3.90
2018-01-19T09:16:57.715Z,4.00
2018-01-19T09:18:00.199Z,4.00
2018-01-19T09:19:03.513Z,4.00
2018-01-19T09:20:06.768Z,4.10
2018-01-19T09:21:09.338Z,4.10
2018-01-19T09:22:12.052Z,4.10
2018-01-19T09:23:14.540Z,4.10
2018-01-19T09:24:17.487Z,4.10
2018-01-19T09:25:20.789Z,4.30
2018-01-19T09:39:18.318Z,4.10
2018-01-19T09:40:21.581Z,4.30
2018-01-19T09:41:24.994Z,4.30
2018-01-19T09:42:27.476Z,4.30
2018-01-19T09:43:30.725Z,4.30
2018-01-19T09:44:33.868Z,4.30
2018-01-19T09:45:36.394Z,4.30
2018-01-19T09:46:38.895Z,4.30
2018-01-19T09:47:41.384Z,4.40
2018-01-19T09:48:43.858Z,4.40
2018-01-19T09:49:46.393Z,4.40
2018-01-19T09:50:48.887Z,4.40
2018-01-19T09:51:51.411Z,4.40
2018-01-19T09:52:53.892Z,4.40
2018-01-19T09:53:56.744Z,4.40
2018-01-19T09:54:59.221Z,4.40
2018-01-19T09:56:01.706Z,4.50
2018-01-19T09:57:04.209Z,4.50
2018-01-19T09:58:07.466Z,4.50
2018-01-19T09:59:10.115Z,4.50
2018-01-19T10:00:12.648Z,4.60
2018-01-19T10:01:15.900Z,4.70
2018-01-19T10:02:18.404Z,4.70
2018-01-19T10:03:21.655Z,4.70
2018-01-19T10:04:24.139Z,4.70
2018-01-19T10:05:27.415Z,4.70
2018-01-19T10:06:29.899Z,4.80
2018-01-19T10:07:32.442Z,4.80
2018-01-19T10:08:34.932Z,4.90
2018-01-19T10:09:37.405Z,4.90
2018-01-19T10:10:39.880Z,4.90
2018-01-19T10:11:42.365Z,4.90
2018-01-19T10:12:45.661Z,5.10
2018-01-19T10:13:48.956Z,5.10
2018-01-19T10:14:52.204Z,5.10
2018-01-19T10:15:54.692Z,5.10
2018-01-19T10:16:57.173Z,5.00
2018-01-19T10:18:00.424Z,5.00
2018-01-19T10:19:02.909Z,5.00
2018-01-19T10:20:05.391Z,5.10
2018-01-19T10:21:08.705Z,5.10
2018-01-19T10:22:11.353Z,5.00
2018-01-19T10:23:13.854Z,5.00
2018-01-19T10:24:16.364Z,5.00
2018-01-19T10:25:18.837Z,5.00
2018-01-19T10:26:22.304Z,5.00
2018-01-19T10:27:24.808Z,5.00
2018-01-19T10:28:27.285Z,5.10
2018-01-19T10:29:29.793Z,5.10
2018-01-19T10:30:32.280Z,5.20
2018-01-19T10:31:35.516Z,5.20
2018-01-19T10:32:38.017Z,5.20
2018-01-19T10:33:41.620Z,5.20
2018-01-19T10:34:44.099Z,5.30
2018-01-19T10:35:47.353Z,5.30
2018-01-19T10:36:49.831Z,5.30
2018-01-19T10:37:52.333Z,5.30
2018-01-19T10:38:54.822Z,5.30
2018-01-19T10:39:57.304Z,5.30
2018-01-19T10:40:59.780Z,5.30
2018-01-19T10:42:02.293Z,5.30
2018-01-19T10:43:04.776Z,5.30
2018-01-19T10:44:08.037Z,5.20
2018-01-19T10:45:10.732Z,5.20
2018-01-19T10:46:13.268Z,5.20
2018-01-19T10:47:15.751Z,5.30
2018-01-19T10:48:18.235Z,5.30
2018-01-19T10:49:20.739Z,5.30
2018-01-19T10:50:23.230Z,5.30
2018-01-19T10:51:25.744Z,5.20
2018-01-19T10:52:28.219Z,5.20
2018-01-19T10:53:30.683Z,5.20
2018-01-19T10:54:33.192Z,5.20
2018-01-19T10:55:35.685Z,5.20
2018-01-19T10:56:38.944Z,5.20
2018-01-19T10:57:42.188Z,5.30
2018-01-19T10:58:44.670Z,5.30
2018-01-19T10:59:47.154Z,5.30
2018-01-19T11:00:49.670Z,5.40
2018-01-19T11:01:52.185Z,5.30
2018-01-19T11:02:54.665Z,5.40
2018-01-19T11:03:57.144Z,5.50
2018-01-19T11:05:00.410Z,5.50
2018-01-19T11:06:02.903Z,5.50
2018-01-19T11:07:06.165Z,5.50
2018-01-19T11:08:08.657Z,5.50
2018-01-19T11:09:11.271Z,5.50
2018-01-19T11:10:13.845Z,5.60
2018-01-19T11:11:16.431Z,5.70
2018-01-19T11:12:19.872Z,5.70
2018-01-19T11:13:22.349Z,5.70
2018-01-19T11:14:25.601Z,5.70
2018-01-19T11:15:28.073Z,5.60
2018-01-19T11:16:30.548Z,5.70
2018-01-19T11:17:33.075Z,5.80
2018-01-19T11:18:35.555Z,5.90
2018-01-19T11:19:38.075Z,5.90
2018-01-19T11:20:40.543Z,5.80
2018-01-19T11:21:43.055Z,5.80
2018-01-19T11:22:45.544Z,5.80
2018-01-19T11:23:48.039Z,5.80
2018-01-19T11:24:50.514Z,5.90
2018-01-19T11:25:52.992Z,5.90
2018-01-19T11:26:55.476Z,6.00
2018-01-19T11:27:57.968Z,5.90
2018-01-19T11:29:02.286Z,6.00
2018-01-19T11:30:05.551Z,6.00
2018-01-19T11:31:08.029Z,6.00
2018-01-19T11:32:11.776Z,6.10
2018-01-19T11:33:14.276Z,6.10
2018-01-19T11:34:16.790Z,6.10
2018-01-19T11:35:19.285Z,6.10
2018-01-19T11:36:21.771Z,6.00
2018-01-19T11:37:24.250Z,6.10
2018-01-19T11:38:26.743Z,6.00
2018-01-19T11:39:29.998Z,5.90
2018-01-19T11:40:32.484Z,5.90
2018-01-19T11:41:35.005Z,6.00
2018-01-19T11:42:37.574Z,6.00
2018-01-19T11:43:40.045Z,6.00
2018-01-19T11:44:42.542Z,6.10
2018-01-19T11:45:45.051Z,6.10
2018-01-19T11:46:47.543Z,6.20
2018-01-19T11:47:50.033Z,6.30
2018-01-19T11:48:54.308Z,6.30
2018-01-19T11:50:00.078Z,6.30
2018-01-19T11:51:03.415Z,6.40
2018-01-19T11:52:06.061Z,6.30
2018-01-19T11:53:08.562Z,6.30
2018-01-19T11:54:11.247Z,6.30
2018-01-19T11:55:14.541Z,6.30
2018-01-19T11:56:17.798Z,6.30
2018-01-19T11:57:20.281Z,6.30
2018-01-19T11:58:22.791Z,6.30
2018-01-19T11:59:25.282Z,6.30
2018-01-19T12:00:27.796Z,6.40
2018-01-19T12:01:30.271Z,6.50
2018-01-19T12:02:34.196Z,6.70
2018-01-19T12:03:36.709Z,6.60
2018-01-19T12:04:39.195Z,6.70
2018-01-19T12:05:41.715Z,6.70
2018-01-19T12:06:44.213Z,6.70
2018-01-19T12:07:46.704Z,6.60
2018-01-19T12:08:49.185Z,6.60
2018-01-19T12:09:51.707Z,6.60
2018-01-19T12:10:54.230Z,6.60
2018-01-19T12:11:56.734Z,6.50
2018-01-19T12:12:59.980Z,6.50
2018-01-19T12:14:02.456Z,6.50
2018-01-19T12:15:04.974Z,6.50
2018-01-19T12:16:08.247Z,6.40
2018-01-19T12:17:10.817Z,6.40
2018-01-19T12:18:13.343Z,6.40
2018-01-19T12:19:15.813Z,6.30
2018-01-19T12:20:18.336Z,6.30
2018-01-19T12:21:20.846Z,6.20
2018-01-19T12:22:23.327Z,6.20
2018-01-19T12:23:25.837Z,6.20
2018-01-19T12:24:28.300Z,6.10
2018-01-19T12:25:30.822Z,6.20
2018-01-19T12:26:33.324Z,6.10
2018-01-19T12:27:35.825Z,6.10
2018-01-19T12:28:39.240Z,6.20
2018-01-19T12:29:41.811Z,6.10
2018-01-19T12:30:44.351Z,6.20
2018-01-19T12:31:46.826Z,6.30
2018-01-19T12:32:49.316Z,6.30
2018-01-19T12:33:51.806Z,6.40
2018-01-19T12:34:54.284Z,6.40
2018-01-19T12:35:56.780Z,6.30
2018-01-19T12:36:59.273Z,6.30
2018-01-19T12:38:02.169Z,6.20
2018-01-19T12:39:04.697Z,6.30
2018-01-19T12:40:07.176Z,6.30
2018-01-19T12:41:09.812Z,6.30
2018-01-19T12:42:12.495Z,6.40
2018-01-19T12:43:15.749Z,6.40
2018-01-19T12:44:18.231Z,6.40
2018-01-19T12:45:20.712Z,6.40
2018-01-19T12:46:23.958Z,6.50
2018-01-19T12:47:26.492Z,6.50
2018-01-19T12:48:29.744Z,6.50
2018-01-19T12:49:32.242Z,6.50
2018-01-19T12:50:35.505Z,6.60
2018-01-19T12:51:38.124Z,6.50
2018-01-19T12:52:40.623Z,6.60
2018-01-19T12:53:43.117Z,6.60
2018-01-19T12:54:45.619Z,6.70
2018-01-19T12:55:48.109Z,6.70
2018-01-19T12:56:52.215Z,6.70
2018-01-19T12:57:54.768Z,6.80
2018-01-19T12:58:58.041Z,6.80
2018-01-19T13:00:00.519Z,6.80
2018-01-19T13:01:03.798Z,6.70
2018-01-19T13:02:06.289Z,6.70
2018-01-19T13:03:08.814Z,6.80
2018-01-19T13:04:11.463Z,6.80
2018-01-19T13:05:13.979Z,6.90
2018-01-19T13:06:16.515Z,7.00
2018-01-19T13:07:19.014Z,7.00
2018-01-19T13:08:21.527Z,7.00
2018-01-19T13:09:24.043Z,6.90
2018-01-19T13:10:26.534Z,6.90
2018-01-19T13:11:29.022Z,6.90
2018-01-19T13:12:32.548Z,6.80
2018-01-19T13:13:35.087Z,6.80
2018-01-19T13:14:38.335Z,6.70
2018-01-19T13:15:40.853Z,6.70
2018-01-19T13:16:44.108Z,6.70
2018-01-19T13:17:46.609Z,6.70
2018-01-19T13:18:49.882Z,6.70
2018-01-19T13:19:53.149Z,6.70
2018-01-19T13:20:56.031Z,6.70
2018-01-19T13:21:58.535Z,6.80
2018-01-19T13:23:01.050Z,6.70
2018-01-19T13:24:04.425Z,6.70
2018-01-19T13:25:07.934Z,6.70
2018-01-19T13:26:10.726Z,6.70
2018-01-19T13:27:14.975Z,6.60
2018-01-19T13:28:17.466Z,6.60
2018-01-19T13:29:20.584Z,6.50
2018-01-19T13:30:23.064Z,6.50
2018-01-19T13:31:26.501Z,6.50
2018-01-19T13:32:29.784Z,6.50
2018-01-19T13:33:33.093Z,6.50
2018-01-19T13:34:35.605Z,6.50
2018-01-19T13:35:38.103Z,6.50
2018-01-19T13:36:40.636Z,6.40
2018-01-19T13:37:43.125Z,6.40
2018-01-19T13:38:46.212Z,6.30
2018-01-19T13:39:48.766Z,6.30
2018-01-19T13:40:51.755Z,6.30
2018-01-19T13:41:54.251Z,6.30
2018-01-19T13:42:57.404Z,6.20
2018-01-19T13:43:59.890Z,6.20
2018-01-19T13:45:02.392Z,6.20
2018-01-19T13:46:05.665Z,6.20
2018-01-19T13:47:08.212Z,6.20
2018-01-19T13:48:10.929Z,6.20
2018-01-19T13:49:15.183Z,6.20
2018-01-19T13:50:17.740Z,6.20
2018-01-19T13:51:20.248Z,6.20
2018-01-19T13:52:22.742Z,6.20
2018-01-19T13:53:25.243Z,6.10
2018-01-19T13:54:27.738Z,6.10
2018-01-19T13:55:30.244Z,6.00
2018-01-19T13:56:33.090Z,6.00
2018-01-19T13:57:35.621Z,6.00
2018-01-19T13:58:38.112Z,5.90
2018-01-19T13:59:40.666Z,5.90
2018-01-19T14:00:43.157Z,5.90
2018-01-19T14:01:46.399Z,5.90
2018-01-19T14:02:48.914Z,5.90
2018-01-19T14:03:51.420Z,5.80
2018-01-19T14:04:54.306Z,5.80
2018-01-19T14:05:57.953Z,5.80
2018-01-19T14:07:00.476Z,5.80
2018-01-19T14:08:02.995Z,5.80
2018-01-19T14:09:05.708Z,5.80
2018-01-19T14:10:08.216Z,5.80
2018-01-19T14:11:11.640Z,5.80
2018-01-19T14:12:14.148Z,5.80
2018-01-19T14:13:16.723Z,5.90
2018-01-19T14:14:21.622Z,5.90
2018-01-19T14:15:24.133Z,5.90
2018-01-19T14:16:26.679Z,5.90
2018-01-19T14:17:29.186Z,6.00